createdAt,value
2023-02-19T00:01:54.374Z,2.05
2023-02-19T00:06:57.356Z,1.95
2023-02-19T00:12:00.255Z,1.91
2023-02-19T00:17:03.208Z,1.91
2023-02-19T00:22:05.933Z,1.97
2023-02-19T00:27:08.761Z,1.86
2023-02-19T00:32:11.574Z,1.91
2023-02-19T00:37:14.326Z,1.89
2023-02-19T00:42:17.073Z,1.83
2023-02-19T00:47:20.125Z,1.92
2023-02-19T00:52:23.436Z,1.82
2023-02-19T00:57:26.265Z,1.96
2023-02-19T01:02:29.101Z,1.72
2023-02-19T01:07:35.338Z,1.91
2023-02-19T01:12:38.259Z,1.84
2023-02-19T01:17:40.963Z,1.89
2023-02-19T01:22:43.803Z,2.06
2023-02-19T01:27:47.070Z,1.84
2023-02-19T01:32:49.836Z,2.25
2023-02-19T01:37:54.673Z,2.15
2023-02-19T01:42:57.618Z,2.35
2023-02-19T01:48:27.905Z,2.44
2023-02-19T01:53:38.228Z,2.42
2023-02-19T01:58:41.442Z,2.44
2023-02-19T02:03:47.398Z,2.49
2023-02-19T02:09:14.584Z,2.61
2023-02-19T02:14:20.794Z,2.40
2023-02-19T02:19:27.386Z,2.35
2023-02-19T02:24:34.742Z,2.42
2023-02-19T02:30:05.956Z,2.44
2023-02-19T02:35:13.609Z,2.44
2023-02-19T02:40:19.113Z,2.24
2023-02-19T02:45:36.002Z,2.13
2023-02-19T02:51:14.138Z,2.10
2023-02-19T02:56:38.151Z,1.90
2023-02-19T03:02:14.907Z,2.07
2023-02-19T03:07:18.982Z,2.00
2023-02-19T03:12:42.414Z,2.14
2023-02-19T03:18:11.923Z,2.24
2023-02-19T03:23:18.098Z,2.07
2023-02-19T03:28:43.225Z,2.04
2023-02-19T03:33:54.039Z,2.11
2023-02-19T03:39:04.836Z,2.08
2023-02-19T03:44:37.327Z,1.99
2023-02-19T03:49:40.720Z,2.09
2023-02-19T03:55:02.741Z,2.13
2023-02-19T04:00:23.675Z,2.08
2023-02-19T04:05:30.347Z,2.11
2023-02-19T04:10:34.226Z,2.14
2023-02-19T04:15:40.667Z,2.30
2023-02-19T04:20:45.906Z,2.40
2023-02-19T04:25:52.528Z,2.35
2023-02-19T04:30:55.787Z,2.43
2023-02-19T04:35:58.772Z,2.44
2023-02-19T04:41:01.575Z,2.51
2023-02-19T04:46:04.477Z,2.45
2023-02-19T04:51:08.843Z,2.70
2023-02-19T04:56:15.150Z,2.58
2023-02-19T05:01:18.028Z,2.81
2023-02-19T05:06:20.835Z,2.83
2023-02-19T05:11:24.214Z,2.98
2023-02-19T05:16:26.962Z,2.83
2023-02-19T05:21:29.981Z,2.87
2023-02-19T05:26:32.744Z,3.28
2023-02-19T05:31:35.734Z,3.47
2023-02-19T05:36:39.882Z,3.54
2023-02-19T05:41:42.667Z,3.49
2023-02-19T05:46:45.603Z,3.65
2023-02-19T05:51:51.665Z,3.75
2023-02-19T05:56:54.220Z,3.62
2023-02-19T06:01:58.505Z,3.73
2023-02-19T06:07:01.192Z,3.75
2023-02-19T06:12:04.162Z,3.90
2023-02-19T06:17:06.952Z,4.21
2023-02-19T06:22:10.583Z,4.33
2023-02-19T06:27:13.750Z,4.52
2023-02-19T06:32:17.421Z,4.83
2023-02-19T06:37:20.461Z,4.87
2023-02-19T06:42:23.259Z,5.01
2023-02-19T06:47:26.289Z,5.27
2023-02-19T06:52:29.213Z,5.35
2023-02-19T06:57:32.408Z,5.24
2023-02-19T07:02:35.181Z,5.33
2023-02-19T07:07:38.148Z,5.59
2023-02-19T07:12:41.013Z,5.12
2023-02-19T07:17:43.848Z,5.14
2023-02-19T07:22:46.621Z,5.28
2023-02-19T07:27:49.657Z,5.32
2023-02-19T07:32:52.504Z,5.15
2023-02-19T07:37:55.566Z,5.38
2023-02-19T07:43:00.653Z,5.13
2023-02-19T07:48:03.950Z,5.22
2023-02-19T07:53:06.865Z,5.17
2023-02-19T07:58:09.595Z,5.29
2023-02-19T08:03:12.540Z,5.16
2023-02-19T08:08:16.552Z,5.08
2023-02-19T08:13:19.593Z,5.46
2023-02-19T08:18:24.600Z,5.09
2023-02-19T08:23:28.572Z,5.14
2023-02-19T08:28:31.843Z,5.36
2023-02-19T08:33:35.109Z,5.24
2023-02-19T08:38:38.136Z,5.65
2023-02-19T08:43:42.549Z,5.17
2023-02-19T08:48:45.483Z,5.35
2023-02-19T08:53:48.562Z,5.69
2023-02-19T08:58:51.532Z,5.68
2023-02-19T09:03:54.973Z,5.89
2023-02-19T09:08:57.813Z,5.91
2023-02-19T09:14:02.401Z,5.93
2023-02-19T09:19:05.420Z,5.71
2023-02-19T09:24:09.872Z,5.80
2023-02-19T09:29:19.472Z,5.85
2023-02-19T09:34:33.448Z,5.63
2023-02-19T09:39:36.991Z,5.64
2023-02-19T09:44:42.527Z,5.99
2023-02-19T09:49:52.378Z,6.02
2023-02-19T09:54:59.609Z,5.81
2023-02-19T10:00:25.928Z,5.81
2023-02-19T10:05:29.560Z,6.00
2023-02-19T10:10:37.813Z,5.72
2023-02-19T10:16:16.093Z,5.82
2023-02-19T10:21:22.886Z,6.00
2023-02-19T10:26:26.011Z,6.22
2023-02-19T10:31:32.051Z,6.21
2023-02-19T10:36:45.565Z,6.23
2023-02-19T10:41:50.900Z,6.45
2023-02-19T10:46:57.103Z,6.45
2023-02-19T10:52:29.753Z,6.05
2023-02-19T10:57:34.735Z,5.72
2023-02-19T11:02:37.627Z,5.51
2023-02-19T11:07:46.649Z,5.67
2023-02-19T11:12:52.218Z,5.76
2023-02-19T11:18:01.919Z,5.63
2023-02-19T11:23:18.285Z,5.48
2023-02-19T11:28:39.132Z,5.68
2023-02-19T11:33:49.195Z,5.47
2023-02-19T11:38:52.263Z,5.36
2023-02-19T11:44:06.970Z,5.44
2023-02-19T11:49:18.108Z,5.59
2023-02-19T11:54:54.834Z,5.38
2023-02-19T12:00:23.018Z,5.58
2023-02-19T12:05:40.078Z,5.55
2023-02-19T12:11:09.370Z,5.56
2023-02-19T12:16:26.860Z,5.47
2023-02-19T12:21:51.716Z,5.44
2023-02-19T12:27:16.329Z,5.47
2023-02-19T12:32:28.603Z,5.60
2023-02-19T12:38:00.726Z,5.42
2023-02-19T12:43:15.779Z,5.48
2023-02-19T12:48:26.242Z,5.26
2023-02-19T12:53:33.467Z,5.20
2023-02-19T12:58:43.588Z,5.19
2023-02-19T13:04:04.925Z,5.21
2023-02-19T13:09:20.090Z,5.11
2023-02-19T13:14:30.249Z,5.29
2023-02-19T13:19:33.915Z,5.36
2023-02-19T13:24:42.321Z,5.25
2023-02-19T13:30:07.139Z,5.20
2023-02-19T13:35:18.620Z,5.21
2023-02-19T13:40:37.450Z,5.00
2023-02-19T13:45:46.189Z,4.80
2023-02-19T13:50:49.271Z,4.86
2023-02-19T13:55:53.526Z,5.07
2023-02-19T14:00:56.739Z,4.88
2023-02-19T14:06:04.610Z,4.65
2023-02-19T14:11:08.773Z,4.57
2023-02-19T14:16:33.628Z,4.70
2023-02-19T14:21:39.382Z,4.63
2023-02-19T14:26:43.063Z,4.69
2023-02-19T14:31:47.260Z,4.47
2023-02-19T14:36:55.826Z,4.64
2023-02-19T14:42:03.107Z,4.47
2023-02-19T14:47:09.763Z,4.16
2023-02-19T14:52:28.780Z,4.30
2023-02-19T14:57:43.968Z,4.25
2023-02-19T15:02:46.942Z,4.16
2023-02-19T15:07:51.793Z,3.98
2023-02-19T15:12:58.226Z,4.00
2023-02-19T15:18:03.096Z,3.70
2023-02-19T15:23:07.055Z,3.77
2023-02-19T15:28:39.071Z,3.67
2023-02-19T15:33:50.714Z,3.54
2023-02-19T15:38:56.317Z,3.69
2023-02-19T15:44:21.484Z,3.64
2023-02-19T15:49:37.838Z,3.33
2023-02-19T15:54:56.236Z,3.59
2023-02-19T16:00:27.601Z,3.60
2023-02-19T16:05:31.491Z,3.30
2023-02-19T16:10:34.416Z,3.41
2023-02-19T16:15:40.147Z,3.40
2023-02-19T16:20:47.780Z,3.27
2023-02-19T16:26:00.271Z,3.20
2023-02-19T16:31:06.279Z,3.08
2023-02-19T16:36:20.772Z,3.11
2023-02-19T16:41:23.746Z,3.02
2023-02-19T16:46:26.444Z,2.84
2023-02-19T16:51:29.496Z,2.77
2023-02-19T16:56:32.524Z,2.76
2023-02-19T17:01:37.134Z,2.73
2023-02-19T17:06:40.364Z,2.73
2023-02-19T17:11:43.290Z,2.65
2023-02-19T17:16:46.493Z,2.66
2023-02-19T17:21:50.367Z,2.54
2023-02-19T17:26:53.316Z,2.56
2023-02-19T17:31:56.438Z,2.37
2023-02-19T17:36:59.940Z,2.36
2023-02-19T17:42:03.489Z,2.34
2023-02-19T17:47:06.856Z,2.42
2023-02-19T17:52:10.815Z,2.38
2023-02-19T17:57:13.832Z,2.36
2023-02-19T18:02:17.143Z,2.24
2023-02-19T18:07:20.238Z,2.40
2023-02-19T18:12:25.972Z,2.30
2023-02-19T18:17:28.931Z,2.25
2023-02-19T18:22:36.742Z,2.33
2023-02-19T18:27:39.817Z,2.12
2023-02-19T18:32:42.888Z,2.19
2023-02-19T18:37:46.348Z,2.07
2023-02-19T18:43:34.245Z,1.94
2023-02-19T18:49:53.471Z,1.88
2023-02-19T19:02:29.718Z,2.55
2023-02-19T21:16:22.150Z,1.42
2023-02-19T22:35:51.326Z,1.36
2023-02-19T22:42:39.295Z,1.29
2023-02-19T23:48:06.881Z,1.64
2023-02-19T23:54:28.056Z,1.52
